createdAt,value
2023-04-28T00:00:19.499Z,15.83
2023-04-28T00:02:48.166Z,15.13
2023-04-28T00:05:15.579Z,15.17
2023-04-28T00:07:42.287Z,16.27
2023-04-28T00:10:09.624Z,15.77
2023-04-28T00:12:36.301Z,15.80
2023-04-28T00:15:03.703Z,16.20
2023-04-28T00:17:30.191Z,15.80
2023-04-28T00:19:57.755Z,15.43
2023-04-28T00:22:24.178Z,16.30
2023-04-28T00:24:50.594Z,17.07
2023-04-28T00:27:17.075Z,16.90
2023-04-28T00:29:43.644Z,16.30
2023-04-28T00:32:10.093Z,16.13
2023-04-28T00:34:37.483Z,16.57
2023-04-28T00:37:04.696Z,16.20
2023-04-28T00:39:31.225Z,15.93
2023-04-28T00:41:57.881Z,15.53
2023-04-28T00:44:24.478Z,16.53
2023-04-28T00:46:51.111Z,16.67
2023-04-28T00:49:17.519Z,17.20
2023-04-28T00:51:44.472Z,16.70
2023-04-28T00:54:14.105Z,16.60
2023-04-28T00:56:41.135Z,17.00
2023-04-28T00:59:07.669Z,16.77
2023-04-28T01:01:35.365Z,16.33
2023-04-28T01:04:02.233Z,17.17
2023-04-28T01:06:29.318Z,16.47
2023-04-28T01:08:55.955Z,16.37
2023-04-28T01:11:22.739Z,16.70
2023-04-28T01:13:49.334Z,16.67
2023-04-28T01:16:15.955Z,15.67
2023-04-28T01:18:47.622Z,16.20
2023-04-28T01:21:14.165Z,16.17
2023-04-28T01:23:40.825Z,16.37
2023-04-28T01:26:07.681Z,16.70
2023-04-28T01:28:34.263Z,17.33
2023-04-28T01:31:00.867Z,15.90
2023-04-28T01:33:28.012Z,17.07
2023-04-28T01:35:58.509Z,15.97
2023-04-28T01:38:25.210Z,16.57
2023-04-28T01:40:52.038Z,15.80
2023-04-28T01:43:18.864Z,16.10
2023-04-28T01:45:45.419Z,15.93
2023-04-28T01:48:12.378Z,15.87
2023-04-28T01:50:39.094Z,16.60
2023-04-28T01:53:05.741Z,16.50
2023-04-28T01:55:32.206Z,16.80
2023-04-28T01:57:59.515Z,16.47
2023-04-28T02:00:27.183Z,15.83
2023-04-28T02:02:53.963Z,16.73
2023-04-28T02:05:20.563Z,17.23
2023-04-28T02:07:47.269Z,16.77
2023-04-28T02:10:14.204Z,16.80
2023-04-28T02:12:42.659Z,17.00
2023-04-28T02:15:09.602Z,16.37
2023-04-28T02:17:36.382Z,17.13
2023-04-28T02:20:03.412Z,17.70
2023-04-28T02:22:30.195Z,17.10
2023-04-28T02:24:57.474Z,17.87
2023-04-28T02:27:24.054Z,17.80
2023-04-28T02:29:50.620Z,16.97
2023-04-28T02:32:17.118Z,17.57
2023-04-28T02:34:43.979Z,16.97
2023-04-28T02:37:10.487Z,17.03
2023-04-28T02:39:37.290Z,16.93
2023-04-28T02:42:05.470Z,17.27
2023-04-28T02:44:32.067Z,17.47
2023-04-28T02:46:58.948Z,17.33
2023-04-28T02:49:25.365Z,17.50
2023-04-28T02:51:52.062Z,17.87
2023-04-28T02:54:27.441Z,18.47
2023-04-28T02:56:54.693Z,16.83
2023-04-28T02:59:22.002Z,18.17
2023-04-28T03:01:48.886Z,17.80
2023-04-28T03:04:16.250Z,17.03
2023-04-28T03:06:43.111Z,17.90
2023-04-28T03:09:10.792Z,16.77
2023-04-28T03:11:37.246Z,16.67
2023-04-28T03:14:04.496Z,17.23
2023-04-28T03:16:31.113Z,16.73
2023-04-28T03:18:57.572Z,17.07
2023-04-28T03:21:24.461Z,17.07
2023-04-28T03:23:51.044Z,17.00
2023-04-28T03:26:17.606Z,15.13
2023-04-28T03:28:44.217Z,17.13
2023-04-28T03:31:10.904Z,16.07
2023-04-28T03:33:37.296Z,15.90
2023-04-28T03:36:04.045Z,15.63
2023-04-28T03:38:30.478Z,16.93
2023-04-28T03:40:56.975Z,15.87
2023-04-28T03:43:23.532Z,17.33
2023-04-28T03:45:50.190Z,16.90
2023-04-28T03:48:16.842Z,16.00
2023-04-28T03:50:45.541Z,16.50
2023-04-28T03:53:12.712Z,16.30
2023-04-28T03:55:39.946Z,16.90
2023-04-28T03:58:07.020Z,16.27
2023-04-28T04:00:33.532Z,17.37
2023-04-28T04:03:00.274Z,16.27
2023-04-28T04:05:26.986Z,16.67
2023-04-28T04:07:53.539Z,16.57
2023-04-28T04:10:19.966Z,15.57
2023-04-28T04:12:46.480Z,17.90
2023-04-28T04:15:13.056Z,17.43
2023-04-28T04:17:39.581Z,17.10
2023-04-28T04:20:07.355Z,16.50
2023-04-28T04:22:34.352Z,16.53
2023-04-28T04:25:00.928Z,15.80
2023-04-28T04:27:27.416Z,15.93
2023-04-28T04:29:53.861Z,15.80
2023-04-28T04:32:20.277Z,16.33
2023-04-28T04:34:46.868Z,15.10
2023-04-28T04:37:13.397Z,16.00
2023-04-28T04:39:39.941Z,16.40
2023-04-28T04:42:20.647Z,14.70
2023-04-28T04:44:50.680Z,14.37
2023-04-28T04:47:17.854Z,14.63
2023-04-28T04:49:44.442Z,15.47
2023-04-28T04:52:11.079Z,14.93
2023-04-28T04:54:38.202Z,14.30
2023-04-28T04:57:04.814Z,14.33
2023-04-28T04:59:31.226Z,15.43
2023-04-28T05:01:57.832Z,15.10
2023-04-28T05:04:24.467Z,13.63
2023-04-28T05:06:51.569Z,15.03
2023-04-28T05:09:18.211Z,14.50
2023-04-28T05:11:45.534Z,15.30
2023-04-28T05:14:12.085Z,14.70
2023-04-28T05:16:39.103Z,15.23
2023-04-28T05:19:05.738Z,15.07
2023-04-28T05:21:32.683Z,14.50
2023-04-28T05:23:59.386Z,14.30
2023-04-28T05:26:26.206Z,14.77
2023-04-28T05:28:52.692Z,13.67
2023-04-28T05:31:19.202Z,14.27
2023-04-28T05:33:46.020Z,14.27
2023-04-28T05:36:12.834Z,14.73
2023-04-28T05:38:39.488Z,14.43
2023-04-28T05:41:06.229Z,14.00
2023-04-28T05:43:32.688Z,13.53
2023-04-28T05:46:00.598Z,13.27
2023-04-28T05:48:27.175Z,14.63
2023-04-28T05:50:53.568Z,14.40
2023-04-28T05:53:20.409Z,13.47
2023-04-28T05:55:46.927Z,13.27
2023-04-28T05:58:13.489Z,13.43
2023-04-28T06:00:39.860Z,13.87
2023-04-28T06:03:08.653Z,13.53
2023-04-28T06:05:35.508Z,13.40
2023-04-28T06:08:03.572Z,14.30
2023-04-28T06:10:30.029Z,12.90
2023-04-28T06:12:56.612Z,12.40
2023-04-28T06:15:23.026Z,12.30
2023-04-28T06:17:49.676Z,11.70
2023-04-28T06:20:16.661Z,11.52
2023-04-28T06:22:43.313Z,11.52
2023-04-28T06:25:09.852Z,11.25
2023-04-28T06:27:36.536Z,10.60
2023-04-28T06:30:03.560Z,11.98
2023-04-28T06:32:30.372Z,11.90
2023-04-28T06:34:58.391Z,11.23
2023-04-28T06:37:25.324Z,10.43
2023-04-28T06:39:51.766Z,11.27
2023-04-28T06:42:20.382Z,10.38
2023-04-28T06:44:47.188Z,9.80
2023-04-28T06:47:13.779Z,9.20
2023-04-28T06:49:40.242Z,9.38
2023-04-28T06:52:07.943Z,9.68
2023-04-28T06:54:34.656Z,8.48
2023-04-28T06:57:01.058Z,8.35
2023-04-28T06:59:28.038Z,8.68
2023-04-28T07:01:54.545Z,8.20
2023-04-28T07:04:21.442Z,7.85
2023-04-28T07:06:48.260Z,8.07
2023-04-28T07:09:15.951Z,7.75
2023-04-28T07:11:42.746Z,7.78
2023-04-28T07:14:09.403Z,8.43
2023-04-28T07:16:36.056Z,7.93
2023-04-28T07:19:02.480Z,8.43
2023-04-28T07:21:28.961Z,8.32
2023-04-28T07:23:56.949Z,7.30
2023-04-28T07:26:24.060Z,7.65
2023-04-28T07:28:50.506Z,7.38
2023-04-28T07:31:17.673Z,7.80
2023-04-28T07:33:44.523Z,7.95
2023-04-28T07:36:11.157Z,8.40
2023-04-28T07:38:37.669Z,8.07
2023-04-28T07:41:05.718Z,7.57
2023-04-28T07:43:34.041Z,7.57
2023-04-28T07:46:00.630Z,7.43
2023-04-28T07:48:27.357Z,6.93
2023-04-28T07:50:54.137Z,7.88
2023-04-28T07:53:21.226Z,7.60
2023-04-28T07:55:47.702Z,7.03
2023-04-28T07:58:14.232Z,7.22
2023-04-28T08:00:41.232Z,7.30
2023-04-28T08:03:08.004Z,7.22
2023-04-28T08:05:34.632Z,6.82
2023-04-28T08:08:01.190Z,7.22
2023-04-28T08:10:28.401Z,6.80
2023-04-28T08:12:54.917Z,6.55
2023-04-28T08:15:21.428Z,6.85
2023-04-28T08:17:47.926Z,7.18
2023-04-28T08:20:21.077Z,6.95
2023-04-28T08:22:48.797Z,6.53
2023-04-28T08:25:15.960Z,6.93
2023-04-28T08:27:42.431Z,6.53
2023-04-28T08:30:10.078Z,6.78
2023-04-28T08:32:36.696Z,6.35
2023-04-28T08:35:03.636Z,6.32
2023-04-28T08:37:30.900Z,6.57
2023-04-28T08:40:04.790Z,6.50
2023-04-28T08:42:32.107Z,6.68
2023-04-28T08:45:02.266Z,7.10
2023-04-28T08:47:34.166Z,6.18
2023-04-28T08:50:06.044Z,6.60
2023-04-28T08:52:33.261Z,5.90
2023-04-28T08:55:01.664Z,6.15
2023-04-28T08:57:30.962Z,6.70
2023-04-28T08:59:58.599Z,6.18
2023-04-28T09:02:25.559Z,6.22
2023-04-28T09:04:52.560Z,6.18
2023-04-28T09:07:19.369Z,6.22
2023-04-28T09:09:46.040Z,5.95
2023-04-28T09:12:12.489Z,5.95
2023-04-28T09:14:39.278Z,6.68
2023-04-28T09:17:13.764Z,6.35
2023-04-28T09:19:43.394Z,6.38
2023-04-28T09:22:24.768Z,6.55
2023-04-28T09:24:53.224Z,5.47
2023-04-28T09:27:26.756Z,6.20
2023-04-28T09:29:54.164Z,6.32
2023-04-28T09:32:22.427Z,5.93
2023-04-28T09:34:54.207Z,6.10
2023-04-28T09:37:22.589Z,6.10
2023-04-28T09:39:51.025Z,5.60
2023-04-28T09:42:37.462Z,5.63
2023-04-28T09:45:11.327Z,6.13
2023-04-28T09:47:42.901Z,5.30
2023-04-28T09:50:14.413Z,5.28
2023-04-28T09:52:42.195Z,5.43
2023-04-28T09:55:09.428Z,4.82
2023-04-28T09:57:36.518Z,4.82
2023-04-28T10:00:06.833Z,4.82
2023-04-28T10:02:43.336Z,4.97
2023-04-28T10:05:11.545Z,4.60
2023-04-28T10:07:39.138Z,5.05
2023-04-28T10:10:07.470Z,5.05
2023-04-28T10:12:34.809Z,4.90
2023-04-28T10:15:02.102Z,5.20
2023-04-28T10:17:29.685Z,4.55
2023-04-28T10:19:57.195Z,5.15
2023-04-28T10:22:55.954Z,4.68
2023-04-28T10:25:30.167Z,4.78
2023-04-28T10:27:57.951Z,5.18
2023-04-28T10:30:28.612Z,4.93
2023-04-28T10:33:14.346Z,5.20
2023-04-28T10:35:45.668Z,4.90
2023-04-28T10:38:14.755Z,5.25
2023-04-28T10:40:45.499Z,5.50
2023-04-28T10:43:33.054Z,5.50
2023-04-28T10:46:01.188Z,5.90
2023-04-28T10:48:33.988Z,5.53
2023-04-28T10:51:03.671Z,6.45
2023-04-28T10:53:42.681Z,6.28
2023-04-28T10:56:09.756Z,6.50
2023-04-28T10:58:39.908Z,6.57
2023-04-28T11:01:18.769Z,8.23
2023-04-28T11:03:52.470Z,8.80
2023-04-28T11:06:26.835Z,8.82
2023-04-28T11:08:55.665Z,11.38
2023-04-28T11:11:27.400Z,15.07
2023-04-28T11:13:56.499Z,14.95
2023-04-28T11:16:25.596Z,18.52
2023-04-28T11:19:03.810Z,17.13
2023-04-28T11:21:31.046Z,15.35
2023-04-28T11:23:58.711Z,17.42
2023-04-28T11:26:25.649Z,17.58
2023-04-28T11:28:54.422Z,16.05
2023-04-28T11:31:25.399Z,16.85
2023-04-28T11:34:07.629Z,12.18
2023-04-28T11:36:36.760Z,12.63
2023-04-28T11:39:08.425Z,12.57
2023-04-28T11:41:36.522Z,13.38
2023-04-28T11:44:23.541Z,12.85
2023-04-28T11:46:51.740Z,12.05
2023-04-28T11:49:18.856Z,11.90
2023-04-28T11:51:47.380Z,13.25
2023-04-28T11:54:14.995Z,13.38
2023-04-28T11:56:42.318Z,13.18
2023-04-28T11:59:10.675Z,14.90
2023-04-28T12:01:59.050Z,13.82
2023-04-28T12:04:39.467Z,13.35
2023-04-28T12:07:10.543Z,16.75
2023-04-28T12:09:39.000Z,12.70
2023-04-28T12:12:07.367Z,13.55
2023-04-28T12:15:01.507Z,11.05
2023-04-28T12:17:32.478Z,12.15
2023-04-28T12:20:01.422Z,10.63
2023-04-28T12:22:28.227Z,8.30
2023-04-28T12:25:22.360Z,6.57
2023-04-28T12:28:08.188Z,6.68
2023-04-28T12:30:42.289Z,7.72
2023-04-28T12:33:29.024Z,7.18
2023-04-28T12:35:58.920Z,7.63
2023-04-28T12:38:26.434Z,7.65
2023-04-28T12:40:53.236Z,7.72
2023-04-28T12:43:21.114Z,8.10
2023-04-28T12:45:47.708Z,7.80
2023-04-28T12:48:14.180Z,8.60
2023-04-28T12:50:40.792Z,9.70
2023-04-28T12:53:07.437Z,10.07
2023-04-28T12:55:33.871Z,10.35
2023-04-28T12:58:00.494Z,9.32
2023-04-28T13:00:27.140Z,9.85
2023-04-28T13:02:53.743Z,11.10
2023-04-28T13:05:20.585Z,11.63
2023-04-28T13:07:47.716Z,12.63
2023-04-28T13:10:14.251Z,13.02
2023-04-28T13:12:41.559Z,12.48
2023-04-28T13:15:08.777Z,12.15
2023-04-28T13:17:35.575Z,12.75
2023-04-28T13:20:03.751Z,13.68
2023-04-28T13:22:30.238Z,14.15
2023-04-28T13:24:56.621Z,14.23
2023-04-28T13:27:23.378Z,15.10
2023-04-28T13:29:49.815Z,15.02
2023-04-28T13:32:16.344Z,14.88
2023-04-28T13:34:42.844Z,15.45
2023-04-28T13:37:09.436Z,15.20
2023-04-28T13:39:35.938Z,14.65
2023-04-28T13:42:02.586Z,16.52
2023-04-28T13:44:29.144Z,14.90
2023-04-28T13:46:56.282Z,15.38
2023-04-28T13:49:23.809Z,15.60
2023-04-28T13:51:50.348Z,15.98
2023-04-28T13:54:16.784Z,14.45
2023-04-28T13:56:44.053Z,15.95
2023-04-28T13:59:11.044Z,16.15
2023-04-28T14:01:37.630Z,15.43
2023-04-28T14:04:04.726Z,15.75
2023-04-28T14:06:32.976Z,15.95
2023-04-28T14:09:01.264Z,14.70
2023-04-28T14:11:27.865Z,15.80
2023-04-28T14:13:54.473Z,15.75
2023-04-28T14:16:21.469Z,14.80
2023-04-28T14:18:47.940Z,14.57
2023-04-28T14:21:14.397Z,14.60
2023-04-28T14:23:41.078Z,15.45
2023-04-28T14:26:07.716Z,14.23
2023-04-28T14:28:35.060Z,14.45
2023-04-28T14:31:07.336Z,13.93
2023-04-28T14:33:34.080Z,14.07
2023-04-28T14:36:02.551Z,13.88
2023-04-28T14:38:30.588Z,12.65
2023-04-28T14:40:57.547Z,13.45
2023-04-28T14:43:24.747Z,12.70
2023-04-28T14:45:51.616Z,13.10
2023-04-28T14:48:18.651Z,12.57
2023-04-28T14:50:46.184Z,12.23
2023-04-28T14:53:12.777Z,13.27
2023-04-28T14:55:39.140Z,12.55
2023-04-28T14:58:05.604Z,12.30
2023-04-28T15:00:32.123Z,12.00
2023-04-28T15:02:58.800Z,13.02
2023-04-28T15:05:25.606Z,13.18
2023-04-28T15:07:52.616Z,12.60
2023-04-28T15:10:19.220Z,13.40
2023-04-28T15:12:48.225Z,12.40
2023-04-28T15:15:15.272Z,12.32
2023-04-28T15:17:41.770Z,11.88
2023-04-28T15:20:09.012Z,12.32
2023-04-28T15:22:36.626Z,11.93
2023-04-28T15:25:03.385Z,11.90
2023-04-28T15:27:29.926Z,10.98
2023-04-28T15:29:56.436Z,11.68
2023-04-28T15:32:23.368Z,12.00
2023-04-28T15:34:50.082Z,11.38
2023-04-28T15:37:43.268Z,11.02
2023-04-28T15:40:11.878Z,11.00
2023-04-28T15:42:41.992Z,11.45
2023-04-28T15:45:10.394Z,10.98
2023-04-28T15:47:38.824Z,11.50
2023-04-28T15:50:06.391Z,10.57
2023-04-28T15:52:35.940Z,10.75
2023-04-28T15:55:02.654Z,11.27
2023-04-28T15:57:29.660Z,11.05
2023-04-28T15:59:56.257Z,11.25
2023-04-28T16:02:23.541Z,11.98
2023-04-28T16:04:51.421Z,13.18
2023-04-28T16:07:18.290Z,12.63
2023-04-28T16:09:44.838Z,11.82
2023-04-28T16:12:11.716Z,12.43
2023-04-28T16:14:38.253Z,11.77
2023-04-28T16:17:04.974Z,11.48
2023-04-28T16:19:31.621Z,11.98
2023-04-28T16:21:58.270Z,14.07
2023-04-28T16:24:25.926Z,13.60
2023-04-28T16:26:52.481Z,11.07
2023-04-28T16:29:18.983Z,10.43
2023-04-28T16:31:45.709Z,10.32
2023-04-28T16:34:12.324Z,10.13
2023-04-28T16:36:40.189Z,9.60
2023-04-28T16:39:06.974Z,9.75
2023-04-28T16:41:33.554Z,9.57
2023-04-28T16:44:00.021Z,9.57
2023-04-28T16:46:26.819Z,9.57
2023-04-28T16:48:53.242Z,21.33
2023-04-28T16:51:19.739Z,14.93
2023-04-28T16:53:46.182Z,11.80
2023-04-28T16:56:12.708Z,10.82
2023-04-28T16:58:39.388Z,10.65
2023-04-28T17:01:06.018Z,10.67
2023-04-28T17:03:33.892Z,10.60
2023-04-28T17:06:00.849Z,10.27
2023-04-28T17:08:27.368Z,11.50
2023-04-28T17:10:53.913Z,10.77
2023-04-28T17:13:20.410Z,11.35
2023-04-28T17:15:54.337Z,11.13
2023-04-28T17:18:21.115Z,10.85
2023-04-28T17:20:48.139Z,11.45
2023-04-28T17:23:15.243Z,11.10
2023-04-28T17:25:41.744Z,11.10
2023-04-28T17:28:08.264Z,10.93
2023-04-28T17:30:35.668Z,10.15
2023-04-28T17:33:02.863Z,10.57
2023-04-28T17:35:30.207Z,12.38
2023-04-28T17:37:57.036Z,13.38
2023-04-28T17:40:24.192Z,11.18
2023-04-28T17:42:51.477Z,12.25
2023-04-28T17:45:18.119Z,10.52
2023-04-28T17:47:44.656Z,10.23
2023-04-28T17:50:11.288Z,10.50
2023-04-28T17:52:38.914Z,10.40
2023-04-28T17:55:06.047Z,10.77
2023-04-28T17:57:33.619Z,11.05
2023-04-28T18:00:00.486Z,10.75
2023-04-28T18:02:27.361Z,10.80
2023-04-28T18:04:54.985Z,11.80
2023-04-28T18:07:21.659Z,10.18
2023-04-28T18:09:48.225Z,10.68
2023-04-28T18:12:17.231Z,9.95
2023-04-28T18:14:44.424Z,10.70
2023-04-28T18:17:11.157Z,9.27
2023-04-28T18:19:37.782Z,9.88
2023-04-28T18:22:05.503Z,9.93
2023-04-28T18:24:32.430Z,9.20
2023-04-28T18:26:59.306Z,9.88
2023-04-28T18:29:25.858Z,9.27
2023-04-28T18:31:52.461Z,9.07
2023-04-28T18:34:19.112Z,9.13
2023-04-28T18:36:45.676Z,9.07
2023-04-28T18:39:12.565Z,8.73
2023-04-28T18:41:40.218Z,8.50
2023-04-28T18:44:06.823Z,9.20
2023-04-28T18:46:34.048Z,9.80
2023-04-28T18:49:00.620Z,9.32
2023-04-28T18:51:27.334Z,9.63
2023-04-28T18:53:54.361Z,9.25
2023-04-28T18:56:21.818Z,9.43
2023-04-28T18:58:48.399Z,10.07
2023-04-28T19:01:16.258Z,10.13
2023-04-28T19:03:43.716Z,10.30
2023-04-28T19:06:11.147Z,10.15
2023-04-28T19:08:39.107Z,10.93
2023-04-28T19:11:07.135Z,10.80
2023-04-28T19:13:34.404Z,10.82
2023-04-28T19:16:02.154Z,11.80
2023-04-28T19:18:30.353Z,10.93
2023-04-28T19:21:01.617Z,11.10
2023-04-28T19:23:29.045Z,12.40
2023-04-28T19:25:59.152Z,12.52
2023-04-28T19:28:26.738Z,13.35
2023-04-28T19:30:54.642Z,14.55
2023-04-28T19:33:24.900Z,13.85
2023-04-28T19:35:56.474Z,13.90
2023-04-28T19:38:23.361Z,14.02
2023-04-28T19:40:53.402Z,14.80
2023-04-28T19:43:19.876Z,15.23
2023-04-28T19:45:47.186Z,15.30
2023-04-28T19:48:14.479Z,15.52
2023-04-28T19:50:42.165Z,15.80
2023-04-28T19:53:09.418Z,16.02
2023-04-28T19:55:36.486Z,16.50
2023-04-28T19:58:04.920Z,16.35
2023-04-28T20:00:32.575Z,16.45
2023-04-28T20:02:59.864Z,16.67
2023-04-28T20:05:27.336Z,16.45
2023-04-28T20:07:56.169Z,16.95
2023-04-28T20:10:23.851Z,16.58
2023-04-28T20:12:50.810Z,17.00
2023-04-28T20:15:18.328Z,16.48
2023-04-28T20:17:47.189Z,17.80
2023-04-28T20:20:13.855Z,16.42
2023-04-28T20:22:41.165Z,16.42
2023-04-28T20:25:10.289Z,16.80
2023-04-28T20:27:37.058Z,16.40
2023-04-28T20:30:04.524Z,17.00
2023-04-28T20:32:31.800Z,16.57
2023-04-28T20:34:58.450Z,17.30
2023-04-28T20:37:26.377Z,17.10
2023-04-28T20:39:53.219Z,16.65
2023-04-28T20:42:19.787Z,17.45
2023-04-28T20:44:46.571Z,17.45
2023-04-28T20:47:14.122Z,17.27
2023-04-28T20:49:41.928Z,17.10
2023-04-28T20:52:08.722Z,17.63
2023-04-28T20:54:39.834Z,17.02
2023-04-28T20:57:06.603Z,16.83
2023-04-28T20:59:33.414Z,17.88
2023-04-28T21:02:00.295Z,16.52
2023-04-28T21:04:28.034Z,18.17
2023-04-28T21:06:54.716Z,16.75
2023-04-28T21:09:22.576Z,17.90
2023-04-28T21:11:49.166Z,16.70
2023-04-28T21:14:15.636Z,16.37
2023-04-28T21:16:43.565Z,17.73
2023-04-28T21:19:10.658Z,17.25
2023-04-28T21:21:37.681Z,17.88
2023-04-28T21:24:05.911Z,19.00
2023-04-28T21:26:32.560Z,18.88
2023-04-28T21:28:59.194Z,18.23
2023-04-28T21:31:26.534Z,17.73
2023-04-28T21:33:53.302Z,19.08
2023-04-28T21:36:19.832Z,18.70
2023-04-28T21:38:46.486Z,19.48
2023-04-28T21:41:13.363Z,18.98
2023-04-28T21:43:40.559Z,18.63
2023-04-28T21:46:07.199Z,18.13
2023-04-28T21:48:33.738Z,17.93
2023-04-28T21:51:01.317Z,18.13
2023-04-28T21:53:28.708Z,17.83
2023-04-28T21:55:55.553Z,16.75
2023-04-28T21:58:22.234Z,16.83
2023-04-28T22:00:48.800Z,16.90
2023-04-28T22:03:16.225Z,16.88
2023-04-28T22:05:44.185Z,16.10
2023-04-28T22:08:10.792Z,15.73
2023-04-28T22:10:37.988Z,16.30
2023-04-28T22:13:05.223Z,15.55
2023-04-28T22:15:32.974Z,15.30
2023-04-28T22:17:59.958Z,15.70
2023-04-28T22:20:27.003Z,15.07
2023-04-28T22:22:53.964Z,14.98
2023-04-28T22:25:20.592Z,14.50
2023-04-28T22:27:47.189Z,14.65
2023-04-28T22:30:13.919Z,14.32
2023-04-28T22:32:44.612Z,14.45
2023-04-28T22:35:14.403Z,13.88
2023-04-28T22:37:41.130Z,14.18
2023-04-28T22:40:08.843Z,13.82
2023-04-28T22:42:39.972Z,15.23
2023-04-28T22:45:07.211Z,15.95
2023-04-28T22:47:34.680Z,15.50
2023-04-28T22:50:04.315Z,15.55
2023-04-28T22:52:31.656Z,15.68
2023-04-28T22:54:58.439Z,17.90
2023-04-28T22:57:25.112Z,18.55
2023-04-28T22:59:51.788Z,19.15
2023-04-28T23:02:18.877Z,19.37
2023-04-28T23:04:45.792Z,19.10
2023-04-28T23:07:12.599Z,20.05
2023-04-28T23:09:39.089Z,20.35
2023-04-28T23:12:06.057Z,20.43
2023-04-28T23:14:33.084Z,21.85
2023-04-28T23:16:59.831Z,21.40
2023-04-28T23:19:26.710Z,21.10
2023-04-28T23:21:55.628Z,21.57
2023-04-28T23:24:24.957Z,22.90
2023-04-28T23:26:51.950Z,24.23
2023-04-28T23:29:18.554Z,24.33
2023-04-28T23:31:52.373Z,23.63
2023-04-28T23:34:19.668Z,23.67
2023-04-28T23:36:46.585Z,23.98
2023-04-28T23:39:13.564Z,24.45
2023-04-28T23:41:41.277Z,24.63
2023-04-28T23:44:08.488Z,24.40
2023-04-28T23:46:35.252Z,26.38
2023-04-28T23:49:02.105Z,25.60
2023-04-28T23:51:28.701Z,25.70
2023-04-28T23:53:55.632Z,25.67
2023-04-28T23:56:22.808Z,26.13
2023-04-28T23:58:49.420Z,26.25
